Pagrindinis puslapis
METAR-TAF:

METAR-TAF

Oro uostai :

Trangas, Tailandas

platuma: 07-31N, ilguma: 099-37E, Aukštis: 14 m

Dabartinis oras

Ataskaita buvo paskelbta 16 minutes, ne 21:00 UTC
Vėjas 2 kt iš Šiaurės Rytų
Temperatūra 24°C
Drėgmė 100%
Slėgis 1009 hPa
Matomumas 10 km arba daugiau
Mažai debesys ne aukštis 2000 ft

METAR: VTST 172100Z 04002KT 9999 FEW020 24/24 Q1009 NOSIG

Laikas: 04:16 (21:16 UTC)

Prognozė

Ataskaita buvo paskelbta 4 valandos ir 16 minutes, ne 17:00 UTC
Prognozė galioja nuo 17 metu 18 UTC su 18 metu 18 UTC
Vėjas kt iš Šiaurės
Matomumas 10 km arba daugiau
Mažai debesys ne aukštis 2000 ft
Tapsmas
nuo 18 metu 00 UTC su 18 metu 02 UTC
Vėjas 6 kt iš Vakarų/Pietvakarių
Tapsmas
nuo 18 metu 12 UTC su 18 metu 14 UTC
Vėjas kt iš Šiaurės

TAF: VTST 171700Z 1718/1818 00000KT 9999 FEW020 BECMG 1800/1802 24006KT BECMG 1812/1814 00000KT

Orai ataskaitas ir orų prognozės (METAR, TAF).

turimą stotys yra geltonos ir raudonos taškus žemėlapyje.

Perkelti pele per norėdami pamatyti stoties vardą.

Tada spustelėkite, norėdami matyti oro stebėjimo ir prognozės.

Norėdami pakeisti žemėlapį: spustelėkite ant žalios mygtukų su juodo kryžiaus žemyn,; žalią mygtuką su brūkšneliu, jei norite nutolinti; arba žalių rodyklių gretimoms žemėlapius.


METAR-TAF: